sensor_id;sensor_type;location;lat;lon;timestamp;temperature;humidity
80958;DHT22;70419;42.700;23.316;2023-11-21T00:01:19;6.60;66.50
80958;DHT22;70419;42.700;23.316;2023-11-21T00:03:45;6.70;65.80
80958;DHT22;70419;42.700;23.316;2023-11-21T00:06:10;6.60;65.80
80958;DHT22;70419;42.700;23.316;2023-11-21T00:08:37;6.70;66.00
80958;DHT22;70419;42.700;23.316;2023-11-21T00:11:03;6.70;66.00
80958;DHT22;70419;42.700;23.316;2023-11-21T00:13:31;6.70;65.90
80958;DHT22;70419;42.700;23.316;2023-11-21T00:15:58;6.70;65.80
80958;DHT22;70419;42.700;23.316;2023-11-21T00:18:24;6.70;65.60
80958;DHT22;70419;42.700;23.316;2023-11-21T00:20:49;6.70;65.90
80958;DHT22;70419;42.700;23.316;2023-11-21T00:23:15;6.80;66.00
80958;DHT22;70419;42.700;23.316;2023-11-21T00:25:41;6.70;66.00
80958;DHT22;70419;42.700;23.316;2023-11-21T00:28:07;6.60;66.00
80958;DHT22;70419;42.700;23.316;2023-11-21T00:30:32;6.60;66.10
80958;DHT22;70419;42.700;23.316;2023-11-21T00:32:58;6.70;66.20
80958;DHT22;70419;42.700;23.316;2023-11-21T00:35:24;6.60;65.80
80958;DHT22;70419;42.700;23.316;2023-11-21T00:37:50;6.70;65.80
80958;DHT22;70419;42.700;23.316;2023-11-21T00:40:16;6.80;66.00
80958;DHT22;70419;42.700;23.316;2023-11-21T00:42:45;6.80;66.00
80958;DHT22;70419;42.700;23.316;2023-11-21T00:45:11;6.70;65.70
80958;DHT22;70419;42.700;23.316;2023-11-21T00:47:37;6.60;65.80
80958;DHT22;70419;42.700;23.316;2023-11-21T00:50:04;6.70;65.30
80958;DHT22;70419;42.700;23.316;2023-11-21T00:52:32;6.60;65.80
80958;DHT22;70419;42.700;23.316;2023-11-21T00:54:58;6.50;65.70
80958;DHT22;70419;42.700;23.316;2023-11-21T00:57:26;6.40;65.90
80958;DHT22;70419;42.700;23.316;2023-11-21T00:59:52;6.40;66.30
80958;DHT22;70419;42.700;23.316;2023-11-21T01:02:18;6.30;66.30
80958;DHT22;70419;42.700;23.316;2023-11-21T01:04:44;6.30;66.40
80958;DHT22;70419;42.700;23.316;2023-11-21T01:07:12;6.20;66.80
80958;DHT22;70419;42.700;23.316;2023-11-21T01:09:38;6.10;67.00
80958;DHT22;70419;42.700;23.316;2023-11-21T01:12:04;6.10;67.40
80958;DHT22;70419;42.700;23.316;2023-11-21T01:14:30;6.10;67.70
80958;DHT22;70419;42.700;23.316;2023-11-21T01:16:56;6.00;67.90
80958;DHT22;70419;42.700;23.316;2023-11-21T01:19:22;6.00;68.10
80958;DHT22;70419;42.700;23.316;2023-11-21T01:21:47;6.00;68.40
80958;DHT22;70419;42.700;23.316;2023-11-21T01:24:13;6.10;68.30
80958;DHT22;70419;42.700;23.316;2023-11-21T01:26:39;6.10;67.90
80958;DHT22;70419;42.700;23.316;2023-11-21T01:29:05;6.10;67.50
80958;DHT22;70419;42.700;23.316;2023-11-21T01:31:31;6.00;68.00
80958;DHT22;70419;42.700;23.316;2023-11-21T01:33:57;5.90;68.10
80958;DHT22;70419;42.700;23.316;2023-11-21T01:36:23;5.90;68.20
80958;DHT22;70419;42.700;23.316;2023-11-21T01:38:48;5.90;68.30
80958;DHT22;70419;42.700;23.316;2023-11-21T01:41:14;5.90;68.40
80958;DHT22;70419;42.700;23.316;2023-11-21T01:43:41;5.90;68.70
80958;DHT22;70419;42.700;23.316;2023-11-21T01:46:11;5.80;68.60
80958;DHT22;70419;42.700;23.316;2023-11-21T01:48:40;5.70;68.70
80958;DHT22;70419;42.700;23.316;2023-11-21T01:51:06;5.70;68.30
80958;DHT22;70419;42.700;23.316;2023-11-21T01:53:32;5.60;68.50
80958;DHT22;70419;42.700;23.316;2023-11-21T01:55:58;5.60;68.50
80958;DHT22;70419;42.700;23.316;2023-11-21T01:58:25;5.60;68.50
80958;DHT22;70419;42.700;23.316;2023-11-21T02:00:51;5.50;68.50
80958;DHT22;70419;42.700;23.316;2023-11-21T02:03:22;5.50;68.60
80958;DHT22;70419;42.700;23.316;2023-11-21T02:05:48;5.40;68.80
80958;DHT22;70419;42.700;23.316;2023-11-21T02:08:14;5.30;69.00
80958;DHT22;70419;42.700;23.316;2023-11-21T02:10:40;5.40;69.20
80958;DHT22;70419;42.700;23.316;2023-11-21T02:13:06;5.30;69.00
80958;DHT22;70419;42.700;23.316;2023-11-21T02:15:32;5.30;69.10
80958;DHT22;70419;42.700;23.316;2023-11-21T02:17:57;5.50;69.10
80958;DHT22;70419;42.700;23.316;2023-11-21T02:20:24;5.40;69.00
80958;DHT22;70419;42.700;23.316;2023-11-21T02:22:54;5.40;68.90
80958;DHT22;70419;42.700;23.316;2023-11-21T02:25:31;5.40;69.10
80958;DHT22;70419;42.700;23.316;2023-11-21T02:27:59;5.40;69.00
80958;DHT22;70419;42.700;23.316;2023-11-21T02:30:26;5.40;69.20
80958;DHT22;70419;42.700;23.316;2023-11-21T02:32:54;5.40;69.00
80958;DHT22;70419;42.700;23.316;2023-11-21T02:35:20;5.40;69.00
80958;DHT22;70419;42.700;23.316;2023-11-21T02:37:47;5.50;69.10
80958;DHT22;70419;42.700;23.316;2023-11-21T02:40:13;5.50;69.10
80958;DHT22;70419;42.700;23.316;2023-11-21T02:42:43;5.40;69.00
80958;DHT22;70419;42.700;23.316;2023-11-21T02:45:09;5.40;69.20
80958;DHT22;70419;42.700;23.316;2023-11-21T02:47:38;5.40;69.20
80958;DHT22;70419;42.700;23.316;2023-11-21T02:50:05;5.40;69.30
80958;DHT22;70419;42.700;23.316;2023-11-21T02:52:33;5.40;69.40
80958;DHT22;70419;42.700;23.316;2023-11-21T02:54:59;5.30;69.40
80958;DHT22;70419;42.700;23.316;2023-11-21T02:57:25;5.30;69.50
80958;DHT22;70419;42.700;23.316;2023-11-21T02:59:50;5.30;69.80
80958;DHT22;70419;42.700;23.316;2023-11-21T03:02:16;5.30;69.90
80958;DHT22;70419;42.700;23.316;2023-11-21T03:04:42;5.30;69.80
80958;DHT22;70419;42.700;23.316;2023-11-21T03:07:11;5.20;69.90
80958;DHT22;70419;42.700;23.316;2023-11-21T03:09:37;5.30;70.00
80958;DHT22;70419;42.700;23.316;2023-11-21T03:12:03;5.20;70.00
80958;DHT22;70419;42.700;23.316;2023-11-21T03:14:29;5.30;70.20
80958;DHT22;70419;42.700;23.316;2023-11-21T03:16:55;5.30;70.20
80958;DHT22;70419;42.700;23.316;2023-11-21T03:19:20;5.30;70.00
80958;DHT22;70419;42.700;23.316;2023-11-21T03:21:51;5.30;70.10
80958;DHT22;70419;42.700;23.316;2023-11-21T03:24:19;5.30;69.80
80958;DHT22;70419;42.700;23.316;2023-11-21T03:26:46;5.40;70.00
80958;DHT22;70419;42.700;23.316;2023-11-21T03:29:12;5.30;70.10
80958;DHT22;70419;42.700;23.316;2023-11-21T03:31:39;5.30;69.60
80958;DHT22;70419;42.700;23.316;2023-11-21T03:34:04;5.30;70.70
80958;DHT22;70419;42.700;23.316;2023-11-21T03:36:30;5.40;69.50
80958;DHT22;70419;42.700;23.316;2023-11-21T03:38:56;5.30;69.20
80958;DHT22;70419;42.700;23.316;2023-11-21T03:41:22;5.40;69.30
80958;DHT22;70419;42.700;23.316;2023-11-21T03:43:48;5.30;69.30
80958;DHT22;70419;42.700;23.316;2023-11-21T03:46:14;5.30;69.20
80958;DHT22;70419;42.700;23.316;2023-11-21T03:48:40;5.40;68.90
80958;DHT22;70419;42.700;23.316;2023-11-21T03:51:07;5.40;68.90
80958;DHT22;70419;42.700;23.316;2023-11-21T03:53:33;5.50;69.00
80958;DHT22;70419;42.700;23.316;2023-11-21T03:55:59;5.40;68.80
80958;DHT22;70419;42.700;23.316;2023-11-21T03:58:27;5.40;69.20
80958;DHT22;70419;42.700;23.316;2023-11-21T04:00:53;5.50;69.20
80958;DHT22;70419;42.700;23.316;2023-11-21T04:03:18;5.60;69.30
80958;DHT22;70419;42.700;23.316;2023-11-21T04:05:45;5.60;69.00
80958;DHT22;70419;42.700;23.316;2023-11-21T04:08:11;5.60;69.00
80958;DHT22;70419;42.700;23.316;2023-11-21T04:10:39;5.50;68.80
80958;DHT22;70419;42.700;23.316;2023-11-21T04:13:06;5.50;68.80
80958;DHT22;70419;42.700;23.316;2023-11-21T04:15:32;5.60;68.90
80958;DHT22;70419;42.700;23.316;2023-11-21T04:17:58;5.50;68.80
80958;DHT22;70419;42.700;23.316;2023-11-21T04:20:24;5.40;68.60
80958;DHT22;70419;42.700;23.316;2023-11-21T04:22:50;5.50;68.80
80958;DHT22;70419;42.700;23.316;2023-11-21T04:25:16;5.50;68.60
80958;DHT22;70419;42.700;23.316;2023-11-21T04:27:44;5.50;68.80
80958;DHT22;70419;42.700;23.316;2023-11-21T04:30:11;5.50;69.00
80958;DHT22;70419;42.700;23.316;2023-11-21T04:32:37;5.40;69.00
80958;DHT22;70419;42.700;23.316;2023-11-21T04:35:03;5.40;69.10
80958;DHT22;70419;42.700;23.316;2023-11-21T04:37:29;5.40;69.10
80958;DHT22;70419;42.700;23.316;2023-11-21T04:39:55;5.30;69.10
80958;DHT22;70419;42.700;23.316;2023-11-21T04:42:21;5.30;69.20
80958;DHT22;70419;42.700;23.316;2023-11-21T04:44:48;5.30;69.20
80958;DHT22;70419;42.700;23.316;2023-11-21T04:47:14;5.20;69.20
80958;DHT22;70419;42.700;23.316;2023-11-21T04:49:42;5.30;69.20
80958;DHT22;70419;42.700;23.316;2023-11-21T04:52:09;5.10;69.30
80958;DHT22;70419;42.700;23.316;2023-11-21T04:54:39;5.10;69.30
80958;DHT22;70419;42.700;23.316;2023-11-21T04:57:05;5.10;69.40
80958;DHT22;70419;42.700;23.316;2023-11-21T04:59:33;5.00;69.10
80958;DHT22;70419;42.700;23.316;2023-11-21T05:01:59;5.00;69.20
80958;DHT22;70419;42.700;23.316;2023-11-21T05:04:26;5.00;69.40
80958;DHT22;70419;42.700;23.316;2023-11-21T05:07:02;4.90;69.70
80958;DHT22;70419;42.700;23.316;2023-11-21T05:09:28;4.90;69.90
80958;DHT22;70419;42.700;23.316;2023-11-21T05:11:57;4.90;69.80
80958;DHT22;70419;42.700;23.316;2023-11-21T05:14:23;5.10;69.70
80958;DHT22;70419;42.700;23.316;2023-11-21T05:16:48;5.10;69.60
80958;DHT22;70419;42.700;23.316;2023-11-21T05:19:16;5.10;69.60
80958;DHT22;70419;42.700;23.316;2023-11-21T05:21:46;5.10;69.40
80958;DHT22;70419;42.700;23.316;2023-11-21T05:24:13;5.20;69.20
80958;DHT22;70419;42.700;23.316;2023-11-21T05:26:44;5.20;69.20
80958;DHT22;70419;42.700;23.316;2023-11-21T05:29:10;5.20;69.00
80958;DHT22;70419;42.700;23.316;2023-11-21T05:31:36;5.30;68.70
80958;DHT22;70419;42.700;23.316;2023-11-21T05:34:04;5.20;68.90
80958;DHT22;70419;42.700;23.316;2023-11-21T05:36:31;5.20;69.20
80958;DHT22;70419;42.700;23.316;2023-11-21T05:38:56;5.20;69.10
80958;DHT22;70419;42.700;23.316;2023-11-21T05:41:23;5.20;69.20
80958;DHT22;70419;42.700;23.316;2023-11-21T05:43:49;5.20;69.40
80958;DHT22;70419;42.700;23.316;2023-11-21T05:46:15;5.20;69.30
80958;DHT22;70419;42.700;23.316;2023-11-21T05:48:43;5.20;69.40
80958;DHT22;70419;42.700;23.316;2023-11-21T05:51:11;5.20;69.40
80958;DHT22;70419;42.700;23.316;2023-11-21T05:53:38;5.30;69.40
80958;DHT22;70419;42.700;23.316;2023-11-21T05:56:04;5.40;69.20
80958;DHT22;70419;42.700;23.316;2023-11-21T05:58:30;5.40;68.80
80958;DHT22;70419;42.700;23.316;2023-11-21T06:00:57;5.50;68.80
80958;DHT22;70419;42.700;23.316;2023-11-21T06:03:26;5.50;68.70
80958;DHT22;70419;42.700;23.316;2023-11-21T06:05:51;5.60;68.50
80958;DHT22;70419;42.700;23.316;2023-11-21T06:08:19;5.80;68.20
80958;DHT22;70419;42.700;23.316;2023-11-21T06:10:45;5.90;67.40
80958;DHT22;70419;42.700;23.316;2023-11-21T06:13:14;6.00;67.20
80958;DHT22;70419;42.700;23.316;2023-11-21T06:15:42;6.30;66.40
80958;DHT22;70419;42.700;23.316;2023-11-21T06:18:08;6.20;66.00
80958;DHT22;70419;42.700;23.316;2023-11-21T06:20:36;6.50;65.40
80958;DHT22;70419;42.700;23.316;2023-11-21T06:23:04;6.70;64.50
80958;DHT22;70419;42.700;23.316;2023-11-21T06:25:32;6.90;63.60
80958;DHT22;70419;42.700;23.316;2023-11-21T06:28:01;7.10;62.50
80958;DHT22;70419;42.700;23.316;2023-11-21T06:30:27;7.40;61.60
80958;DHT22;70419;42.700;23.316;2023-11-21T06:32:55;7.60;60.60
80958;DHT22;70419;42.700;23.316;2023-11-21T06:35:21;7.80;59.70
80958;DHT22;70419;42.700;23.316;2023-11-21T06:37:53;8.20;58.70
80958;DHT22;70419;42.700;23.316;2023-11-21T06:40:19;8.50;57.00
80958;DHT22;70419;42.700;23.316;2023-11-21T06:42:45;9.00;56.00
80958;DHT22;70419;42.700;23.316;2023-11-21T06:45:12;9.30;54.90
80958;DHT22;70419;42.700;23.316;2023-11-21T06:47:38;9.70;53.30
80958;DHT22;70419;42.700;23.316;2023-11-21T06:50:05;10.20;52.30
80958;DHT22;70419;42.700;23.316;2023-11-21T06:52:32;10.70;50.20
80958;DHT22;70419;42.700;23.316;2023-11-21T06:54:58;11.40;49.00
80958;DHT22;70419;42.700;23.316;2023-11-21T06:57:25;12.00;46.90
80958;DHT22;70419;42.700;23.316;2023-11-21T06:59:53;12.80;45.50
80958;DHT22;70419;42.700;23.316;2023-11-21T07:02:19;13.50;42.90
80958;DHT22;70419;42.700;23.316;2023-11-21T07:04:48;14.30;41.30
80958;DHT22;70419;42.700;23.316;2023-11-21T07:07:21;15.00;40.20
80958;DHT22;70419;42.700;23.316;2023-11-21T07:09:50;15.30;40.20
80958;DHT22;70419;42.700;23.316;2023-11-21T07:12:17;15.40;38.60
80958;DHT22;70419;42.700;23.316;2023-11-21T07:14:43;15.50;37.90
80958;DHT22;70419;42.700;23.316;2023-11-21T07:17:12;15.70;37.50
80958;DHT22;70419;42.700;23.316;2023-11-21T07:19:38;15.80;37.10
80958;DHT22;70419;42.700;23.316;2023-11-21T07:22:04;15.80;36.60
80958;DHT22;70419;42.700;23.316;2023-11-21T07:24:32;15.60;37.20
80958;DHT22;70419;42.700;23.316;2023-11-21T07:27:02;15.50;37.50
80958;DHT22;70419;42.700;23.316;2023-11-21T07:29:40;15.40;37.80
80958;DHT22;70419;42.700;23.316;2023-11-21T07:32:06;15.40;37.80
80958;DHT22;70419;42.700;23.316;2023-11-21T07:34:32;15.60;37.50
80958;DHT22;70419;42.700;23.316;2023-11-21T07:36:57;15.90;36.80
80958;DHT22;70419;42.700;23.316;2023-11-21T07:39:26;16.00;36.60
80958;DHT22;70419;42.700;23.316;2023-11-21T07:41:52;16.20;36.20
80958;DHT22;70419;42.700;23.316;2023-11-21T07:44:18;16.40;35.90
80958;DHT22;70419;42.700;23.316;2023-11-21T07:46:45;16.60;35.60
80958;DHT22;70419;42.700;23.316;2023-11-21T07:49:12;17.10;34.60
80958;DHT22;70419;42.700;23.316;2023-11-21T07:51:40;17.70;33.70
80958;DHT22;70419;42.700;23.316;2023-11-21T07:54:06;18.00;32.80
80958;DHT22;70419;42.700;23.316;2023-11-21T07:56:32;18.10;31.90
80958;DHT22;70419;42.700;23.316;2023-11-21T07:58:57;17.90;32.50
80958;DHT22;70419;42.700;23.316;2023-11-21T08:01:23;17.70;32.70
80958;DHT22;70419;42.700;23.316;2023-11-21T08:03:49;17.70;33.00
80958;DHT22;70419;42.700;23.316;2023-11-21T08:06:18;17.60;33.50
80958;DHT22;70419;42.700;23.316;2023-11-21T08:08:47;17.50;33.40
80958;DHT22;70419;42.700;23.316;2023-11-21T08:11:13;17.20;34.00
80958;DHT22;70419;42.700;23.316;2023-11-21T08:13:39;17.00;34.00
80958;DHT22;70419;42.700;23.316;2023-11-21T08:16:05;16.90;34.40
80958;DHT22;70419;42.700;23.316;2023-11-21T08:18:33;17.20;34.00
80958;DHT22;70419;42.700;23.316;2023-11-21T08:20:59;17.90;32.80
80958;DHT22;70419;42.700;23.316;2023-11-21T08:23:26;18.40;31.90
80958;DHT22;70419;42.700;23.316;2023-11-21T08:25:53;18.90;30.60
80958;DHT22;70419;42.700;23.316;2023-11-21T08:28:21;19.20;30.10
80958;DHT22;70419;42.700;23.316;2023-11-21T08:30:52;19.50;30.00
80958;DHT22;70419;42.700;23.316;2023-11-21T08:33:20;19.80;29.70
80958;DHT22;70419;42.700;23.316;2023-11-21T08:35:49;20.10;29.30
80958;DHT22;70419;42.700;23.316;2023-11-21T08:38:15;20.50;28.90
80958;DHT22;70419;42.700;23.316;2023-11-21T08:40:41;21.00;28.10
80958;DHT22;70419;42.700;23.316;2023-11-21T08:43:07;21.40;27.90
80958;DHT22;70419;42.700;23.316;2023-11-21T08:45:34;21.50;27.40
80958;DHT22;70419;42.700;23.316;2023-11-21T08:48:00;21.40;27.50
80958;DHT22;70419;42.700;23.316;2023-11-21T08:50:26;21.40;27.60
80958;DHT22;70419;42.700;23.316;2023-11-21T08:52:57;21.40;27.40
80958;DHT22;70419;42.700;23.316;2023-11-21T08:55:23;21.30;27.60
80958;DHT22;70419;42.700;23.316;2023-11-21T08:57:49;21.40;27.50
80958;DHT22;70419;42.700;23.316;2023-11-21T09:00:15;21.90;26.50
80958;DHT22;70419;42.700;23.316;2023-11-21T09:02:47;22.40;26.40
80958;DHT22;70419;42.700;23.316;2023-11-21T09:05:13;22.70;26.10
80958;DHT22;70419;42.700;23.316;2023-11-21T09:07:40;22.70;25.50
80958;DHT22;70419;42.700;23.316;2023-11-21T09:10:09;22.50;26.00
80958;DHT22;70419;42.700;23.316;2023-11-21T09:12:36;22.20;26.30
80958;DHT22;70419;42.700;23.316;2023-11-21T09:15:04;21.60;26.50
80958;DHT22;70419;42.700;23.316;2023-11-21T09:17:31;21.00;27.20
80958;DHT22;70419;42.700;23.316;2023-11-21T09:19:57;20.40;28.40
80958;DHT22;70419;42.700;23.316;2023-11-21T09:22:23;19.90;28.90
80958;DHT22;70419;42.700;23.316;2023-11-21T09:24:51;19.40;29.50
80958;DHT22;70419;42.700;23.316;2023-11-21T09:27:23;19.00;30.30
80958;DHT22;70419;42.700;23.316;2023-11-21T09:29:52;18.60;30.30
80958;DHT22;70419;42.700;23.316;2023-11-21T09:32:18;18.60;31.00
80958;DHT22;70419;42.700;23.316;2023-11-21T09:34:48;18.50;31.00
80958;DHT22;70419;42.700;23.316;2023-11-21T09:37:13;18.60;31.30
80958;DHT22;70419;42.700;23.316;2023-11-21T09:39:40;18.70;30.70
80958;DHT22;70419;42.700;23.316;2023-11-21T09:42:17;19.20;30.20
80958;DHT22;70419;42.700;23.316;2023-11-21T09:44:58;19.90;29.60
80958;DHT22;70419;42.700;23.316;2023-11-21T09:47:30;20.90;28.50
80958;DHT22;70419;42.700;23.316;2023-11-21T09:49:57;21.70;27.30
80958;DHT22;70419;42.700;23.316;2023-11-21T09:52:30;22.20;27.00
80958;DHT22;70419;42.700;23.316;2023-11-21T09:55:01;22.50;26.10
80958;DHT22;70419;42.700;23.316;2023-11-21T09:57:27;22.80;26.10
80958;DHT22;70419;42.700;23.316;2023-11-21T09:59:55;23.00;25.20
80958;DHT22;70419;42.700;23.316;2023-11-21T10:02:32;23.60;25.40
80958;DHT22;70419;42.700;23.316;2023-11-21T10:05:02;24.20;24.30
80958;DHT22;70419;42.700;23.316;2023-11-21T10:07:31;24.60;24.10
80958;DHT22;70419;42.700;23.316;2023-11-21T10:10:00;25.00;23.60
80958;DHT22;70419;42.700;23.316;2023-11-21T10:12:28;25.60;23.20
80958;DHT22;70419;42.700;23.316;2023-11-21T10:14:58;26.30;22.50
80958;DHT22;70419;42.700;23.316;2023-11-21T10:17:31;27.10;22.10
80958;DHT22;70419;42.700;23.316;2023-11-21T10:20:12;27.70;21.30
80958;DHT22;70419;42.700;23.316;2023-11-21T10:22:49;28.10;20.70
80958;DHT22;70419;42.700;23.316;2023-11-21T10:25:15;27.90;21.00
80958;DHT22;70419;42.700;23.316;2023-11-21T10:27:48;27.70;20.60
80958;DHT22;70419;42.700;23.316;2023-11-21T10:30:17;27.20;21.30
80958;DHT22;70419;42.700;23.316;2023-11-21T10:32:47;26.60;21.80
80958;DHT22;70419;42.700;23.316;2023-11-21T10:35:20;25.90;22.20
80958;DHT22;70419;42.700;23.316;2023-11-21T10:38:02;25.30;22.90
80958;DHT22;70419;42.700;23.316;2023-11-21T10:40:28;24.50;23.40
80958;DHT22;70419;42.700;23.316;2023-11-21T10:42:54;23.80;24.10
80958;DHT22;70419;42.700;23.316;2023-11-21T10:45:24;23.40;24.60
80958;DHT22;70419;42.700;23.316;2023-11-21T10:47:51;22.90;24.90
80958;DHT22;70419;42.700;23.316;2023-11-21T10:50:19;22.40;25.50
80958;DHT22;70419;42.700;23.316;2023-11-21T10:52:45;21.80;26.10
80958;DHT22;70419;42.700;23.316;2023-11-21T10:55:20;21.20;26.60
80958;DHT22;70419;42.700;23.316;2023-11-21T10:57:51;20.60;27.40
80958;DHT22;70419;42.700;23.316;2023-11-21T11:00:18;20.00;28.10
80958;DHT22;70419;42.700;23.316;2023-11-21T11:02:52;19.40;28.60
80958;DHT22;70419;42.700;23.316;2023-11-21T11:05:21;18.90;29.30
80958;DHT22;70419;42.700;23.316;2023-11-21T11:07:50;18.40;30.20
80958;DHT22;70419;42.700;23.316;2023-11-21T11:10:20;18.10;31.30
80958;DHT22;70419;42.700;23.316;2023-11-21T11:12:48;17.70;31.70
80958;DHT22;70419;42.700;23.316;2023-11-21T11:15:16;17.40;32.60
80958;DHT22;70419;42.700;23.316;2023-11-21T11:17:42;17.10;33.30
80958;DHT22;70419;42.700;23.316;2023-11-21T11:20:13;17.00;33.80
80958;DHT22;70419;42.700;23.316;2023-11-21T11:23:04;16.90;34.10
80958;DHT22;70419;42.700;23.316;2023-11-21T11:28:38;16.90;33.80
80958;DHT22;70419;42.700;23.316;2023-11-21T11:34:30;16.80;35.70
80958;DHT22;70419;42.700;23.316;2023-11-21T11:37:03;16.80;34.10
80958;DHT22;70419;42.700;23.316;2023-11-21T11:39:30;16.80;34.00
80958;DHT22;70419;42.700;23.316;2023-11-21T11:41:58;16.80;34.20
80958;DHT22;70419;42.700;23.316;2023-11-21T11:44:46;16.70;34.10
80958;DHT22;70419;42.700;23.316;2023-11-21T11:47:20;16.50;34.60
80958;DHT22;70419;42.700;23.316;2023-11-21T11:50:05;16.40;35.10
80958;DHT22;70419;42.700;23.316;2023-11-21T11:52:45;16.30;35.70
80958;DHT22;70419;42.700;23.316;2023-11-21T11:55:14;16.10;36.40
80958;DHT22;70419;42.700;23.316;2023-11-21T11:57:41;16.00;36.80
80958;DHT22;70419;42.700;23.316;2023-11-21T12:00:16;15.80;37.30
80958;DHT22;70419;42.700;23.316;2023-11-21T12:02:46;15.60;38.60
80958;DHT22;70419;42.700;23.316;2023-11-21T12:05:16;15.50;39.50
80958;DHT22;70419;42.700;23.316;2023-11-21T12:07:54;15.40;39.90
80958;DHT22;70419;42.700;23.316;2023-11-21T12:10:27;15.20;41.10
80958;DHT22;70419;42.700;23.316;2023-11-21T12:12:57;15.10;41.50
80958;DHT22;70419;42.700;23.316;2023-11-21T12:15:28;14.80;41.80
80958;DHT22;70419;42.700;23.316;2023-11-21T12:17:57;14.90;43.60
80958;DHT22;70419;42.700;23.316;2023-11-21T12:20:26;14.90;45.00
80958;DHT22;70419;42.700;23.316;2023-11-21T12:22:54;14.60;45.80
80958;DHT22;70419;42.700;23.316;2023-11-21T12:25:23;14.50;44.70
80958;DHT22;70419;42.700;23.316;2023-11-21T12:27:51;14.30;44.50
80958;DHT22;70419;42.700;23.316;2023-11-21T12:30:20;14.20;45.60
80958;DHT22;70419;42.700;23.316;2023-11-21T12:32:51;14.30;45.90
80958;DHT22;70419;42.700;23.316;2023-11-21T12:35:23;14.30;46.40
80958;DHT22;70419;42.700;23.316;2023-11-21T12:37:52;14.00;46.70
80958;DHT22;70419;42.700;23.316;2023-11-21T12:40:21;14.00;47.10
80958;DHT22;70419;42.700;23.316;2023-11-21T12:42:52;13.80;46.90
80958;DHT22;70419;42.700;23.316;2023-11-21T12:45:21;13.70;47.50
80958;DHT22;70419;42.700;23.316;2023-11-21T12:47:50;13.50;47.90
80958;DHT22;70419;42.700;23.316;2023-11-21T12:50:19;13.50;48.10
80958;DHT22;70419;42.700;23.316;2023-11-21T12:52:57;13.50;48.10
80958;DHT22;70419;42.700;23.316;2023-11-21T12:55:24;13.50;48.40
80958;DHT22;70419;42.700;23.316;2023-11-21T12:58:02;13.30;48.50
80958;DHT22;70419;42.700;23.316;2023-11-21T13:00:46;13.30;48.30
80958;DHT22;70419;42.700;23.316;2023-11-21T13:03:13;13.30;48.80
80958;DHT22;70419;42.700;23.316;2023-11-21T13:05:44;13.40;48.40
80958;DHT22;70419;42.700;23.316;2023-11-21T13:08:12;13.30;48.60
80958;DHT22;70419;42.700;23.316;2023-11-21T13:10:41;13.30;48.70
80958;DHT22;70419;42.700;23.316;2023-11-21T13:13:09;13.30;48.60
80958;DHT22;70419;42.700;23.316;2023-11-21T13:15:49;13.20;48.90
80958;DHT22;70419;42.700;23.316;2023-11-21T13:18:18;13.20;48.70
80958;DHT22;70419;42.700;23.316;2023-11-21T13:20:47;13.00;49.70
80958;DHT22;70419;42.700;23.316;2023-11-21T13:23:13;13.10;49.90
80958;DHT22;70419;42.700;23.316;2023-11-21T13:25:42;13.10;50.00
80958;DHT22;70419;42.700;23.316;2023-11-21T13:28:08;13.20;49.60
80958;DHT22;70419;42.700;23.316;2023-11-21T13:30:36;13.10;48.90
80958;DHT22;70419;42.700;23.316;2023-11-21T13:33:03;12.90;49.00
80958;DHT22;70419;42.700;23.316;2023-11-21T13:35:32;12.70;48.70
80958;DHT22;70419;42.700;23.316;2023-11-21T13:38:10;12.50;49.70
80958;DHT22;70419;42.700;23.316;2023-11-21T13:40:37;12.50;50.70
80958;DHT22;70419;42.700;23.316;2023-11-21T13:43:15;12.50;50.70
80958;DHT22;70419;42.700;23.316;2023-11-21T13:45:42;12.30;50.40
80958;DHT22;70419;42.700;23.316;2023-11-21T13:48:09;12.30;50.20
80958;DHT22;70419;42.700;23.316;2023-11-21T13:50:37;12.20;50.10
80958;DHT22;70419;42.700;23.316;2023-11-21T13:53:05;12.20;49.90
80958;DHT22;70419;42.700;23.316;2023-11-21T13:55:40;12.10;50.90
80958;DHT22;70419;42.700;23.316;2023-11-21T13:58:07;12.20;51.80
80958;DHT22;70419;42.700;23.316;2023-11-21T14:00:37;12.00;52.00
80958;DHT22;70419;42.700;23.316;2023-11-21T14:03:11;12.00;52.20
80958;DHT22;70419;42.700;23.316;2023-11-21T14:05:46;11.90;52.80
80958;DHT22;70419;42.700;23.316;2023-11-21T14:08:19;12.00;53.00
80958;DHT22;70419;42.700;23.316;2023-11-21T14:10:47;12.00;52.40
80958;DHT22;70419;42.700;23.316;2023-11-21T14:13:24;12.00;52.30
80958;DHT22;70419;42.700;23.316;2023-11-21T14:15:50;11.90;52.70
80958;DHT22;70419;42.700;23.316;2023-11-21T14:18:23;12.10;53.10
80958;DHT22;70419;42.700;23.316;2023-11-21T14:20:56;11.90;53.10
80958;DHT22;70419;42.700;23.316;2023-11-21T14:23:23;12.00;53.10
80958;DHT22;70419;42.700;23.316;2023-11-21T14:25:51;12.00;53.40
80958;DHT22;70419;42.700;23.316;2023-11-21T14:28:17;12.00;53.60
80958;DHT22;70419;42.700;23.316;2023-11-21T14:30:45;11.80;53.60
80958;DHT22;70419;42.700;23.316;2023-11-21T14:33:12;11.90;53.10
80958;DHT22;70419;42.700;23.316;2023-11-21T14:35:43;11.80;54.00
80958;DHT22;70419;42.700;23.316;2023-11-21T14:38:09;11.80;54.30
80958;DHT22;70419;42.700;23.316;2023-11-21T14:40:38;11.80;54.30
80958;DHT22;70419;42.700;23.316;2023-11-21T14:43:04;11.90;54.40
80958;DHT22;70419;42.700;23.316;2023-11-21T14:45:32;11.80;54.40
80958;DHT22;70419;42.700;23.316;2023-11-21T14:47:58;11.80;56.10
80958;DHT22;70419;42.700;23.316;2023-11-21T14:50:33;11.80;55.40
80958;DHT22;70419;42.700;23.316;2023-11-21T14:53:11;11.80;55.00
80958;DHT22;70419;42.700;23.316;2023-11-21T14:55:39;11.90;55.50
80958;DHT22;70419;42.700;23.316;2023-11-21T14:58:20;11.90;56.00
80958;DHT22;70419;42.700;23.316;2023-11-21T15:00:54;12.00;56.50
80958;DHT22;70419;42.700;23.316;2023-11-21T15:03:25;11.80;56.30
80958;DHT22;70419;42.700;23.316;2023-11-21T15:06:10;11.90;56.60
80958;DHT22;70419;42.700;23.316;2023-11-21T15:08:51;11.90;56.50
80958;DHT22;70419;42.700;23.316;2023-11-21T15:11:23;11.80;56.70
80958;DHT22;70419;42.700;23.316;2023-11-21T15:13:56;11.80;57.20
80958;DHT22;70419;42.700;23.316;2023-11-21T15:16:22;11.80;57.50
80958;DHT22;70419;42.700;23.316;2023-11-21T15:18:50;12.10;56.40
80958;DHT22;70419;42.700;23.316;2023-11-21T15:21:16;11.70;57.50
80958;DHT22;70419;42.700;23.316;2023-11-21T15:23:46;11.80;57.70
80958;DHT22;70419;42.700;23.316;2023-11-21T15:26:13;11.70;57.80
80958;DHT22;70419;42.700;23.316;2023-11-21T15:28:44;11.60;57.80
80958;DHT22;70419;42.700;23.316;2023-11-21T15:31:10;11.70;58.50
80958;DHT22;70419;42.700;23.316;2023-11-21T15:33:37;11.70;58.20
80958;DHT22;70419;42.700;23.316;2023-11-21T15:36:03;11.60;58.30